sensor_id;sensor_type;location;lat;lon;timestamp;pressure;altitude;pressure_sealevel;temperature;humidity
40864;BME280;26582;47.524;19.012;2024-02-21T00:01:15;99654.94;;;9.47;69.80
40864;BME280;26582;47.524;19.012;2024-02-21T00:03:42;99652.16;;;9.48;69.85
40864;BME280;26582;47.524;19.012;2024-02-21T00:06:08;99650.09;;;9.52;69.82
40864;BME280;26582;47.524;19.012;2024-02-21T00:08:36;99657.44;;;9.59;69.77
40864;BME280;26582;47.524;19.012;2024-02-21T00:11:03;99655.56;;;9.50;70.16
40864;BME280;26582;47.524;19.012;2024-02-21T00:13:30;99654.31;;;9.54;70.23
40864;BME280;26582;47.524;19.012;2024-02-21T00:15:56;99646.34;;;9.54;70.03
40864;BME280;26582;47.524;19.012;2024-02-21T00:18:23;99647.78;;;9.58;70.13
40864;BME280;26582;47.524;19.012;2024-02-21T00:20:50;99641.28;;;9.51;70.24
40864;BME280;26582;47.524;19.012;2024-02-21T00:23:16;99637.78;;;9.62;69.83
40864;BME280;26582;47.524;19.012;2024-02-21T00:25:45;99635.47;;;9.57;69.66
40864;BME280;26582;47.524;19.012;2024-02-21T00:28:11;99638.59;;;9.62;69.43
40864;BME280;26582;47.524;19.012;2024-02-21T00:30:38;99631.94;;;9.79;68.82
40864;BME280;26582;47.524;19.012;2024-02-21T00:33:04;99636.44;;;9.67;68.71
40864;BME280;26582;47.524;19.012;2024-02-21T00:35:30;99618.78;;;9.66;68.83
40864;BME280;26582;47.524;19.012;2024-02-21T00:37:57;99621.69;;;9.52;68.74
40864;BME280;26582;47.524;19.012;2024-02-21T00:40:25;99620.59;;;9.44;68.91
40864;BME280;26582;47.524;19.012;2024-02-21T00:42:52;99610.81;;;9.33;69.37
40864;BME280;26582;47.524;19.012;2024-02-21T00:45:19;99611.09;;;9.30;69.16
40864;BME280;26582;47.524;19.012;2024-02-21T00:47:46;99606.97;;;9.14;68.44
40864;BME280;26582;47.524;19.012;2024-02-21T00:50:13;99609.03;;;9.22;67.60
40864;BME280;26582;47.524;19.012;2024-02-21T00:52:39;99609.25;;;9.41;66.84
40864;BME280;26582;47.524;19.012;2024-02-21T00:55:07;99614.22;;;9.46;66.49
40864;BME280;26582;47.524;19.012;2024-02-21T00:57:34;99603.22;;;9.28;66.51
40864;BME280;26582;47.524;19.012;2024-02-21T01:00:03;99610.34;;;9.28;66.19
40864;BME280;26582;47.524;19.012;2024-02-21T01:02:29;99616.16;;;9.33;66.27
40864;BME280;26582;47.524;19.012;2024-02-21T01:04:56;99605.88;;;9.28;66.15
40864;BME280;26582;47.524;19.012;2024-02-21T01:07:23;99609.88;;;9.45;65.34
40864;BME280;26582;47.524;19.012;2024-02-21T01:09:50;99617.59;;;9.37;64.66
40864;BME280;26582;47.524;19.012;2024-02-21T01:12:17;99607.94;;;9.47;64.98
40864;BME280;26582;47.524;19.012;2024-02-21T01:14:44;99610.84;;;9.55;64.39
40864;BME280;26582;47.524;19.012;2024-02-21T01:17:13;99612.28;;;9.48;64.58
40864;BME280;26582;47.524;19.012;2024-02-21T01:19:39;99611.31;;;9.27;65.40
40864;BME280;26582;47.524;19.012;2024-02-21T01:22:06;99611.31;;;9.38;64.81
40864;BME280;26582;47.524;19.012;2024-02-21T01:24:33;99607.94;;;9.47;64.81
40864;BME280;26582;47.524;19.012;2024-02-21T01:27:00;99614.44;;;9.54;64.47
40864;BME280;26582;47.524;19.012;2024-02-21T01:29:27;99616.63;;;9.38;65.08
40864;BME280;26582;47.524;19.012;2024-02-21T01:31:53;99615.19;;;9.45;65.06
40864;BME280;26582;47.524;19.012;2024-02-21T01:34:21;99609.38;;;9.51;65.19
40864;BME280;26582;47.524;19.012;2024-02-21T01:36:48;99603.84;;;9.32;65.90
40864;BME280;26582;47.524;19.012;2024-02-21T01:39:15;99605.16;;;9.26;66.56
40864;BME280;26582;47.524;19.012;2024-02-21T01:41:41;99601.28;;;8.97;68.07
40864;BME280;26582;47.524;19.012;2024-02-21T01:44:08;99606.97;;;9.03;68.19
40864;BME280;26582;47.524;19.012;2024-02-21T01:46:35;99600.91;;;9.01;68.23
40864;BME280;26582;47.524;19.012;2024-02-21T01:49:02;99605.53;;;9.10;68.04
40864;BME280;26582;47.524;19.012;2024-02-21T01:51:31;99595.75;;;9.11;67.86
40864;BME280;26582;47.524;19.012;2024-02-21T01:53:59;99598.75;;;9.06;68.19
40864;BME280;26582;47.524;19.012;2024-02-21T01:56:26;99601.88;;;8.89;69.04
40864;BME280;26582;47.524;19.012;2024-02-21T01:58:53;99603.22;;;8.83;69.65
40864;BME280;26582;47.524;19.012;2024-02-21T02:01:21;99596.56;;;8.89;69.27
40864;BME280;26582;47.524;19.012;2024-02-21T02:03:48;99601.66;;;9.03;69.11
40864;BME280;26582;47.524;19.012;2024-02-21T02:06:15;99612.50;;;8.89;69.54
40864;BME280;26582;47.524;19.012;2024-02-21T02:08:43;99611.53;;;8.90;70.00
40864;BME280;26582;47.524;19.012;2024-02-21T02:11:12;99613.72;;;8.85;70.15
40864;BME280;26582;47.524;19.012;2024-02-21T02:13:39;99612.25;;;8.92;69.94
40864;BME280;26582;47.524;19.012;2024-02-21T02:16:06;99615.41;;;8.97;69.83
40864;BME280;26582;47.524;19.012;2024-02-21T02:18:32;99625.94;;;9.10;69.23
40864;BME280;26582;47.524;19.012;2024-02-21T02:20:59;99613.97;;;9.15;69.20
40864;BME280;26582;47.524;19.012;2024-02-21T02:23:28;99609.63;;;9.26;68.69
40864;BME280;26582;47.524;19.012;2024-02-21T02:25:54;99610.56;;;8.91;69.45
40864;BME280;26582;47.524;19.012;2024-02-21T02:28:21;99601.97;;;8.76;70.82
40864;BME280;26582;47.524;19.012;2024-02-21T02:30:49;99601.88;;;8.67;71.14
40864;BME280;26582;47.524;19.012;2024-02-21T02:33:16;99598.25;;;8.68;71.21
40864;BME280;26582;47.524;19.012;2024-02-21T02:35:43;99598.72;;;8.61;72.07
40864;BME280;26582;47.524;19.012;2024-02-21T02:38:10;99593.91;;;8.67;71.92
40864;BME280;26582;47.524;19.012;2024-02-21T02:40:39;99603.41;;;8.58;72.29
40864;BME280;26582;47.524;19.012;2024-02-21T02:43:06;99600.88;;;8.32;73.40
40864;BME280;26582;47.524;19.012;2024-02-21T02:45:33;99596.09;;;8.38;73.57
40864;BME280;26582;47.524;19.012;2024-02-21T02:48:00;99596.38;;;8.22;74.34
40864;BME280;26582;47.524;19.012;2024-02-21T02:50:27;99604.63;;;8.06;74.87
40864;BME280;26582;47.524;19.012;2024-02-21T02:52:54;99606.66;;;8.26;74.34
40864;BME280;26582;47.524;19.012;2024-02-21T02:55:21;99607.00;;;8.22;74.57
40864;BME280;26582;47.524;19.012;2024-02-21T02:57:49;99598.81;;;8.25;73.99
40864;BME280;26582;47.524;19.012;2024-02-21T03:00:16;99612.66;;;8.41;73.64
40864;BME280;26582;47.524;19.012;2024-02-21T03:02:43;99604.38;;;8.33;74.24
40864;BME280;26582;47.524;19.012;2024-02-21T03:05:13;99608.34;;;8.03;75.08
40864;BME280;26582;47.524;19.012;2024-02-21T03:07:40;99612.47;;;8.07;75.09
40864;BME280;26582;47.524;19.012;2024-02-21T03:10:07;99602.66;;;8.21;74.36
40864;BME280;26582;47.524;19.012;2024-02-21T03:12:34;99603.22;;;8.13;75.27
40864;BME280;26582;47.524;19.012;2024-02-21T03:15:03;99604.38;;;8.33;74.04
40864;BME280;26582;47.524;19.012;2024-02-21T03:17:30;99603.53;;;8.32;73.73
40864;BME280;26582;47.524;19.012;2024-02-21T03:19:58;99606.84;;;8.36;73.34
40864;BME280;26582;47.524;19.012;2024-02-21T03:22:25;99610.38;;;8.24;73.76
40864;BME280;26582;47.524;19.012;2024-02-21T03:24:52;99622.22;;;8.31;73.39
40864;BME280;26582;47.524;19.012;2024-02-21T03:27:19;99613.53;;;8.29;73.22
40864;BME280;26582;47.524;19.012;2024-02-21T03:29:45;99620.94;;;8.36;73.21
40864;BME280;26582;47.524;19.012;2024-02-21T03:32:13;99616.25;;;8.40;73.26
40864;BME280;26582;47.524;19.012;2024-02-21T03:34:40;99610.84;;;8.42;72.99
40864;BME280;26582;47.524;19.012;2024-02-21T03:37:06;99618.56;;;8.45;72.89
40864;BME280;26582;47.524;19.012;2024-02-21T03:39:33;99612.16;;;8.23;73.74
40864;BME280;26582;47.524;19.012;2024-02-21T03:42:00;99612.91;;;8.25;73.56
40864;BME280;26582;47.524;19.012;2024-02-21T03:44:30;99621.44;;;8.18;73.84
40864;BME280;26582;47.524;19.012;2024-02-21T03:46:56;99616.38;;;8.15;74.11
40864;BME280;26582;47.524;19.012;2024-02-21T03:49:24;99599.19;;;8.07;74.07
40864;BME280;26582;47.524;19.012;2024-02-21T03:51:51;99621.25;;;8.08;74.46
40864;BME280;26582;47.524;19.012;2024-02-21T03:54:17;99603.91;;;7.80;75.55
40864;BME280;26582;47.524;19.012;2024-02-21T03:56:44;99612.38;;;7.72;75.90
40864;BME280;26582;47.524;19.012;2024-02-21T03:59:13;99619.69;;;7.81;76.08
40864;BME280;26582;47.524;19.012;2024-02-21T04:01:40;99608.53;;;7.89;75.61
40864;BME280;26582;47.524;19.012;2024-02-21T04:04:06;99611.97;;;7.78;75.84
40864;BME280;26582;47.524;19.012;2024-02-21T04:06:34;99618.50;;;7.85;76.09
40864;BME280;26582;47.524;19.012;2024-02-21T04:09:02;99613.41;;;7.82;75.90
40864;BME280;26582;47.524;19.012;2024-02-21T04:11:28;99603.16;;;7.78;76.02
40864;BME280;26582;47.524;19.012;2024-02-21T04:13:55;99605.47;;;7.82;76.17
40864;BME280;26582;47.524;19.012;2024-02-21T04:16:22;99609.91;;;7.82;76.00
40864;BME280;26582;47.524;19.012;2024-02-21T04:18:48;99607.22;;;7.71;76.46
40864;BME280;26582;47.524;19.012;2024-02-21T04:21:17;99617.75;;;7.59;77.53
40864;BME280;26582;47.524;19.012;2024-02-21T04:23:45;99605.66;;;7.55;77.80
40864;BME280;26582;47.524;19.012;2024-02-21T04:26:11;99615.16;;;7.47;78.20
40864;BME280;26582;47.524;19.012;2024-02-21T04:28:38;99609.84;;;7.47;78.46
40864;BME280;26582;47.524;19.012;2024-02-21T04:31:05;99607.06;;;7.48;78.19
40864;BME280;26582;47.524;19.012;2024-02-21T04:33:32;99596.47;;;7.48;78.08
40864;BME280;26582;47.524;19.012;2024-02-21T04:35:58;99601.84;;;7.59;77.96
40864;BME280;26582;47.524;19.012;2024-02-21T04:38:26;99595.44;;;7.38;78.26
40864;BME280;26582;47.524;19.012;2024-02-21T04:40:55;99592.47;;;7.43;78.54
40864;BME280;26582;47.524;19.012;2024-02-21T04:43:23;99588.78;;;7.32;78.71
40864;BME280;26582;47.524;19.012;2024-02-21T04:45:50;99598.22;;;7.37;78.80
40864;BME280;26582;47.524;19.012;2024-02-21T04:48:18;99594.31;;;7.17;79.67
40864;BME280;26582;47.524;19.012;2024-02-21T04:50:45;99598.84;;;7.27;79.37
40864;BME280;26582;47.524;19.012;2024-02-21T04:53:12;99592.06;;;7.36;78.92
40864;BME280;26582;47.524;19.012;2024-02-21T04:55:38;99589.19;;;7.39;78.58
40864;BME280;26582;47.524;19.012;2024-02-21T04:58:08;99593.44;;;7.29;78.55
40864;BME280;26582;47.524;19.012;2024-02-21T05:00:34;99593.31;;;7.43;78.18
40864;BME280;26582;47.524;19.012;2024-02-21T05:03:01;99592.34;;;7.44;78.19
40864;BME280;26582;47.524;19.012;2024-02-21T05:05:28;99595.63;;;7.48;77.58
40864;BME280;26582;47.524;19.012;2024-02-21T05:07:54;99601.44;;;7.53;77.34
40864;BME280;26582;47.524;19.012;2024-02-21T05:10:21;99600.28;;;7.57;77.01
40864;BME280;26582;47.524;19.012;2024-02-21T05:12:48;99602.50;;;7.50;76.77
40864;BME280;26582;47.524;19.012;2024-02-21T05:15:16;99606.25;;;7.35;77.18
40864;BME280;26582;47.524;19.012;2024-02-21T05:17:43;99603.97;;;7.05;78.61
40864;BME280;26582;47.524;19.012;2024-02-21T05:20:10;99609.38;;;7.03;78.63
40864;BME280;26582;47.524;19.012;2024-02-21T05:22:37;99604.38;;;7.12;78.63
40864;BME280;26582;47.524;19.012;2024-02-21T05:25:04;99602.19;;;7.05;78.74
40864;BME280;26582;47.524;19.012;2024-02-21T05:27:31;99606.28;;;7.10;78.48
40864;BME280;26582;47.524;19.012;2024-02-21T05:29:58;99606.94;;;7.00;79.34
40864;BME280;26582;47.524;19.012;2024-02-21T05:32:26;99608.19;;;6.82;80.26
40864;BME280;26582;47.524;19.012;2024-02-21T05:34:53;99603.53;;;6.73;80.61
40864;BME280;26582;47.524;19.012;2024-02-21T05:37:20;99602.59;;;6.74;80.20
40864;BME280;26582;47.524;19.012;2024-02-21T05:39:47;99609.38;;;6.65;80.17
40864;BME280;26582;47.524;19.012;2024-02-21T05:42:13;99608.00;;;6.72;80.31
40864;BME280;26582;47.524;19.012;2024-02-21T05:44:40;99608.28;;;6.68;81.27
40864;BME280;26582;47.524;19.012;2024-02-21T05:47:07;99614.53;;;6.67;81.42
40864;BME280;26582;47.524;19.012;2024-02-21T05:49:36;99609.38;;;6.78;81.41
40864;BME280;26582;47.524;19.012;2024-02-21T05:52:04;99623.03;;;6.97;80.93
40864;BME280;26582;47.524;19.012;2024-02-21T05:54:31;99613.94;;;7.01;80.35
40864;BME280;26582;47.524;19.012;2024-02-21T05:56:58;99614.34;;;6.83;81.16
40864;BME280;26582;47.524;19.012;2024-02-21T05:59:24;99623.25;;;6.69;81.74
40864;BME280;26582;47.524;19.012;2024-02-21T06:01:55;99629.78;;;6.89;81.37
40864;BME280;26582;47.524;19.012;2024-02-21T06:04:23;99625.78;;;6.96;81.22
40864;BME280;26582;47.524;19.012;2024-02-21T06:06:51;99638.28;;;7.06;80.85
40864;BME280;26582;47.524;19.012;2024-02-21T06:09:17;99644.00;;;7.00;80.83
40864;BME280;26582;47.524;19.012;2024-02-21T06:11:44;99630.13;;;6.97;80.82
40864;BME280;26582;47.524;19.012;2024-02-21T06:14:11;99627.28;;;7.00;80.90
40864;BME280;26582;47.524;19.012;2024-02-21T06:16:38;99625.69;;;7.10;80.66
40864;BME280;26582;47.524;19.012;2024-02-21T06:19:04;99625.47;;;7.26;79.55
40864;BME280;26582;47.524;19.012;2024-02-21T06:21:31;99623.84;;;7.36;79.75
40864;BME280;26582;47.524;19.012;2024-02-21T06:23:59;99620.00;;;7.40;79.26
40864;BME280;26582;47.524;19.012;2024-02-21T06:26:26;99626.50;;;7.36;79.25
40864;BME280;26582;47.524;19.012;2024-02-21T06:28:52;99624.78;;;7.35;79.82
40864;BME280;26582;47.524;19.012;2024-02-21T06:31:19;99632.66;;;7.24;80.22
40864;BME280;26582;47.524;19.012;2024-02-21T06:33:46;99637.13;;;7.11;80.46
40864;BME280;26582;47.524;19.012;2024-02-21T06:36:12;99624.91;;;7.33;79.28
40864;BME280;26582;47.524;19.012;2024-02-21T06:38:39;99630.94;;;7.36;78.78
40864;BME280;26582;47.524;19.012;2024-02-21T06:41:14;99627.44;;;7.35;79.04
40864;BME280;26582;47.524;19.012;2024-02-21T06:43:41;99645.69;;;7.14;79.92
40864;BME280;26582;47.524;19.012;2024-02-21T06:46:07;99629.03;;;7.38;78.81
40864;BME280;26582;47.524;19.012;2024-02-21T06:48:34;99624.47;;;7.40;78.26
40864;BME280;26582;47.524;19.012;2024-02-21T06:51:01;99628.66;;;7.55;77.89
40864;BME280;26582;47.524;19.012;2024-02-21T06:53:28;99633.44;;;7.50;78.52
40864;BME280;26582;47.524;19.012;2024-02-21T06:55:55;99630.59;;;7.53;78.12
40864;BME280;26582;47.524;19.012;2024-02-21T06:58:23;99629.44;;;7.81;77.60
40864;BME280;26582;47.524;19.012;2024-02-21T07:00:49;99623.69;;;7.87;76.90
40864;BME280;26582;47.524;19.012;2024-02-21T07:03:16;99622.56;;;8.02;75.81
40864;BME280;26582;47.524;19.012;2024-02-21T07:05:43;99627.88;;;8.02;75.36
40864;BME280;26582;47.524;19.012;2024-02-21T07:08:09;99629.13;;;8.09;74.58
40864;BME280;26582;47.524;19.012;2024-02-21T07:10:36;99636.00;;;8.12;74.71
40864;BME280;26582;47.524;19.012;2024-02-21T07:13:03;99636.06;;;7.99;74.61
40864;BME280;26582;47.524;19.012;2024-02-21T07:15:31;99638.31;;;8.17;74.25
40864;BME280;26582;47.524;19.012;2024-02-21T07:17:58;99641.13;;;8.26;73.39
40864;BME280;26582;47.524;19.012;2024-02-21T07:20:25;99652.34;;;8.30;73.28
40864;BME280;26582;47.524;19.012;2024-02-21T07:22:51;99647.53;;;8.48;72.88
40864;BME280;26582;47.524;19.012;2024-02-21T07:25:18;99654.56;;;8.60;72.13
40864;BME280;26582;47.524;19.012;2024-02-21T07:27:45;99639.25;;;8.63;71.21
40864;BME280;26582;47.524;19.012;2024-02-21T07:30:12;99643.41;;;8.79;71.74
40864;BME280;26582;47.524;19.012;2024-02-21T07:32:40;99649.34;;;8.94;70.23
40864;BME280;26582;47.524;19.012;2024-02-21T07:35:07;99639.78;;;8.91;71.65
40864;BME280;26582;47.524;19.012;2024-02-21T07:37:36;99643.91;;;9.06;70.93
40864;BME280;26582;47.524;19.012;2024-02-21T07:40:04;99648.25;;;8.96;70.49
40864;BME280;26582;47.524;19.012;2024-02-21T07:42:30;99649.97;;;9.20;70.15
40864;BME280;26582;47.524;19.012;2024-02-21T07:44:57;99649.25;;;9.29;69.23
40864;BME280;26582;47.524;19.012;2024-02-21T07:47:24;99647.19;;;9.44;68.13
40864;BME280;26582;47.524;19.012;2024-02-21T07:49:53;99651.53;;;9.45;67.96
40864;BME280;26582;47.524;19.012;2024-02-21T07:52:20;99651.44;;;9.35;67.67
40864;BME280;26582;47.524;19.012;2024-02-21T07:54:46;99651.78;;;9.64;66.93
40864;BME280;26582;47.524;19.012;2024-02-21T07:57:13;99654.31;;;9.77;66.25
40864;BME280;26582;47.524;19.012;2024-02-21T07:59:40;99655.56;;;10.05;64.56
40864;BME280;26582;47.524;19.012;2024-02-21T08:02:07;99655.88;;;10.34;63.18
40864;BME280;26582;47.524;19.012;2024-02-21T08:04:34;99664.47;;;10.58;61.67
40864;BME280;26582;47.524;19.012;2024-02-21T08:07:02;99658.16;;;10.70;61.24
40864;BME280;26582;47.524;19.012;2024-02-21T08:09:29;99663.47;;;10.91;60.72
40864;BME280;26582;47.524;19.012;2024-02-21T08:11:56;99658.72;;;10.95;60.14
40864;BME280;26582;47.524;19.012;2024-02-21T08:14:23;99657.50;;;11.30;59.51
40864;BME280;26582;47.524;19.012;2024-02-21T08:16:50;99649.50;;;11.30;59.24
40864;BME280;26582;47.524;19.012;2024-02-21T08:19:18;99644.78;;;11.43;59.10
40864;BME280;26582;47.524;19.012;2024-02-21T08:21:45;99647.97;;;11.67;58.19
40864;BME280;26582;47.524;19.012;2024-02-21T08:24:13;99651.72;;;11.55;57.28
40864;BME280;26582;47.524;19.012;2024-02-21T08:26:41;99653.66;;;11.84;57.29
40864;BME280;26582;47.524;19.012;2024-02-21T08:29:07;99657.41;;;12.12;56.44
40864;BME280;26582;47.524;19.012;2024-02-21T08:31:34;99665.91;;;11.86;56.13
40864;BME280;26582;47.524;19.012;2024-02-21T08:34:01;99660.16;;;11.91;55.79
40864;BME280;26582;47.524;19.012;2024-02-21T08:36:29;99656.13;;;12.16;55.88
40864;BME280;26582;47.524;19.012;2024-02-21T08:38:56;99670.88;;;12.10;56.12
40864;BME280;26582;47.524;19.012;2024-02-21T08:41:24;99663.25;;;12.06;56.16
40864;BME280;26582;47.524;19.012;2024-02-21T08:43:51;99661.88;;;12.01;55.81
40864;BME280;26582;47.524;19.012;2024-02-21T08:46:19;99658.94;;;11.64;56.63
40864;BME280;26582;47.524;19.012;2024-02-21T08:48:46;99658.69;;;11.77;56.51
40864;BME280;26582;47.524;19.012;2024-02-21T08:51:13;99658.16;;;11.83;56.27
40864;BME280;26582;47.524;19.012;2024-02-21T08:53:40;99655.34;;;11.85;55.96
40864;BME280;26582;47.524;19.012;2024-02-21T08:56:07;99650.75;;;11.87;56.18
40864;BME280;26582;47.524;19.012;2024-02-21T08:58:36;99652.56;;;11.86;56.07
40864;BME280;26582;47.524;19.012;2024-02-21T09:01:04;99643.03;;;11.93;56.35
40864;BME280;26582;47.524;19.012;2024-02-21T09:03:31;99638.28;;;12.07;55.67
40864;BME280;26582;47.524;19.012;2024-02-21T09:05:58;99633.22;;;12.13;55.50
40864;BME280;26582;47.524;19.012;2024-02-21T09:08:25;99636.59;;;12.25;55.37
40864;BME280;26582;47.524;19.012;2024-02-21T09:10:52;99650.13;;;12.33;54.49
40864;BME280;26582;47.524;19.012;2024-02-21T09:13:19;99636.34;;;12.28;53.71
40864;BME280;26582;47.524;19.012;2024-02-21T09:15:47;99626.19;;;12.51;53.47
40864;BME280;26582;47.524;19.012;2024-02-21T09:18:14;99632.38;;;12.51;54.25
40864;BME280;26582;47.524;19.012;2024-02-21T09:20:41;99632.94;;;12.65;53.08
40864;BME280;26582;47.524;19.012;2024-02-21T09:23:08;99620.75;;;12.43;53.28
40864;BME280;26582;47.524;19.012;2024-02-21T09:25:35;99630.84;;;12.59;53.63
40864;BME280;26582;47.524;19.012;2024-02-21T09:28:02;99631.53;;;12.51;52.82
40864;BME280;26582;47.524;19.012;2024-02-21T09:30:29;99631.53;;;12.61;53.55
40864;BME280;26582;47.524;19.012;2024-02-21T09:32:57;99632.81;;;12.66;52.65
40864;BME280;26582;47.524;19.012;2024-02-21T09:35:25;99637.72;;;12.61;53.66
40864;BME280;26582;47.524;19.012;2024-02-21T09:37:53;99629.56;;;12.63;52.14
40864;BME280;26582;47.524;19.012;2024-02-21T09:40:20;99644.47;;;12.46;52.87
40864;BME280;26582;47.524;19.012;2024-02-21T09:42:48;99636.19;;;12.49;52.59
40864;BME280;26582;47.524;19.012;2024-02-21T09:45:19;99641.94;;;12.35;52.54
40864;BME280;26582;47.524;19.012;2024-02-21T09:47:54;99634.91;;;12.14;52.15
40864;BME280;26582;47.524;19.012;2024-02-21T09:50:26;99632.69;;;12.39;52.11
40864;BME280;26582;47.524;19.012;2024-02-21T09:52:54;99639.69;;;12.20;53.33
40864;BME280;26582;47.524;19.012;2024-02-21T09:55:21;99640.09;;;12.25;53.90
40864;BME280;26582;47.524;19.012;2024-02-21T09:57:50;99635.50;;;12.27;54.19
40864;BME280;26582;47.524;19.012;2024-02-21T10:00:18;99639.38;;;11.64;54.32
40864;BME280;26582;47.524;19.012;2024-02-21T10:02:47;99639.06;;;10.96;57.18
40864;BME280;26582;47.524;19.012;2024-02-21T10:05:14;99637.31;;;10.64;58.76
40864;BME280;26582;47.524;19.012;2024-02-21T10:07:44;99636.59;;;11.04;58.11
40864;BME280;26582;47.524;19.012;2024-02-21T10:10:11;99623.63;;;11.51;57.35
40864;BME280;26582;47.524;19.012;2024-02-21T10:12:48;99626.56;;;11.48;56.89
40864;BME280;26582;47.524;19.012;2024-02-21T10:15:19;99629.19;;;11.79;55.41
40864;BME280;26582;47.524;19.012;2024-02-21T10:17:47;99626.84;;;11.45;54.98
40864;BME280;26582;47.524;19.012;2024-02-21T10:20:13;99627.72;;;11.55;55.38
40864;BME280;26582;47.524;19.012;2024-02-21T10:22:41;99632.19;;;11.85;54.73
40864;BME280;26582;47.524;19.012;2024-02-21T10:25:10;99617.19;;;12.13;52.70
40864;BME280;26582;47.524;19.012;2024-02-21T10:27:38;99615.25;;;12.35;52.23
40864;BME280;26582;47.524;19.012;2024-02-21T10:30:06;99619.97;;;11.83;53.04
40864;BME280;26582;47.524;19.012;2024-02-21T10:32:33;99610.34;;;11.61;53.97
40864;BME280;26582;47.524;19.012;2024-02-21T10:35:04;99609.88;;;11.96;53.41
40864;BME280;26582;47.524;19.012;2024-02-21T10:37:31;99609.16;;;11.94;52.74
40864;BME280;26582;47.524;19.012;2024-02-21T10:39:57;99595.84;;;12.23;53.07
40864;BME280;26582;47.524;19.012;2024-02-21T10:42:29;99595.97;;;12.02;52.56
40864;BME280;26582;47.524;19.012;2024-02-21T10:45:00;99589.03;;;11.70;53.08
40864;BME280;26582;47.524;19.012;2024-02-21T10:47:31;99587.97;;;12.02;52.55
40864;BME280;26582;47.524;19.012;2024-02-21T10:50:03;99593.47;;;11.60;52.76
40864;BME280;26582;47.524;19.012;2024-02-21T10:52:38;99583.44;;;11.83;52.58
40864;BME280;26582;47.524;19.012;2024-02-21T10:55:16;99585.28;;;12.21;53.09
40864;BME280;26582;47.524;19.012;2024-02-21T10:57:48;99569.56;;;12.38;51.43
40864;BME280;26582;47.524;19.012;2024-02-21T11:00:17;99574.00;;;12.66;51.10
40864;BME280;26582;47.524;19.012;2024-02-21T11:02:44;99560.69;;;12.47;51.19
40864;BME280;26582;47.524;19.012;2024-02-21T11:05:12;99560.66;;;12.57;50.88
40864;BME280;26582;47.524;19.012;2024-02-21T11:07:39;99556.56;;;12.62;50.90
40864;BME280;26582;47.524;19.012;2024-02-21T11:10:20;99556.47;;;12.54;52.13
40864;BME280;26582;47.524;19.012;2024-02-21T11:12:49;99551.41;;;12.41;50.50
40864;BME280;26582;47.524;19.012;2024-02-21T11:15:18;99540.03;;;12.96;50.38
40864;BME280;26582;47.524;19.012;2024-02-21T11:17:53;99539.94;;;12.78;51.37
40864;BME280;26582;47.524;19.012;2024-02-21T11:20:21;99529.50;;;13.31;49.50
40864;BME280;26582;47.524;19.012;2024-02-21T11:22:58;99523.50;;;13.65;48.39
40864;BME280;26582;47.524;19.012;2024-02-21T11:25:24;99523.75;;;13.90;46.07
40864;BME280;26582;47.524;19.012;2024-02-21T11:28:00;99526.56;;;13.88;46.07
40864;BME280;26582;47.524;19.012;2024-02-21T11:30:27;99527.50;;;13.79;46.56
40864;BME280;26582;47.524;19.012;2024-02-21T11:33:00;99516.13;;;13.95;46.52
40864;BME280;26582;47.524;19.012;2024-02-21T11:35:31;99518.94;;;14.11;45.80
40864;BME280;26582;47.524;19.012;2024-02-21T11:38:07;99516.53;;;14.08;45.96
40864;BME280;26582;47.524;19.012;2024-02-21T11:40:34;99505.75;;;13.82;46.38
40864;BME280;26582;47.524;19.012;2024-02-21T11:43:02;99510.78;;;13.31;46.52
40864;BME280;26582;47.524;19.012;2024-02-21T11:45:29;99506.75;;;13.08;46.76
40864;BME280;26582;47.524;19.012;2024-02-21T11:47:58;99503.13;;;13.37;46.97
40864;BME280;26582;47.524;19.012;2024-02-21T11:50:25;99501.00;;;13.40;46.51
40864;BME280;26582;47.524;19.012;2024-02-21T11:52:54;99496.66;;;13.93;46.25
40864;BME280;26582;47.524;19.012;2024-02-21T11:55:21;99495.75;;;14.02;45.05
40864;BME280;26582;47.524;19.012;2024-02-21T11:57:48;99495.88;;;14.18;45.33
40864;BME280;26582;47.524;19.012;2024-02-21T12:00:18;99491.56;;;14.69;44.05
40864;BME280;26582;47.524;19.012;2024-02-21T12:02:46;99486.53;;;15.00;43.07
40864;BME280;26582;47.524;19.012;2024-02-21T12:05:13;99484.09;;;15.74;41.31
40864;BME280;26582;47.524;19.012;2024-02-21T12:07:40;99472.53;;;15.89;40.16
40864;BME280;26582;47.524;19.012;2024-02-21T12:10:08;99475.38;;;17.09;38.33
40864;BME280;26582;47.524;19.012;2024-02-21T12:12:36;99465.41;;;18.40;37.21
40864;BME280;26582;47.524;19.012;2024-02-21T12:15:05;99469.25;;;19.35;34.98
40864;BME280;26582;47.524;19.012;2024-02-21T12:17:33;99466.28;;;20.08;33.75
40864;BME280;26582;47.524;19.012;2024-02-21T12:20:01;99471.09;;;19.85;32.78
40864;BME280;26582;47.524;19.012;2024-02-21T12:22:30;99474.41;;;19.66;33.40
40864;BME280;26582;47.524;19.012;2024-02-21T12:24:58;99469.94;;;19.22;33.32
40864;BME280;26582;47.524;19.012;2024-02-21T12:27:25;99469.13;;;18.39;35.23
40864;BME280;26582;47.524;19.012;2024-02-21T12:29:52;99473.44;;;17.34;36.36
40864;BME280;26582;47.524;19.012;2024-02-21T12:32:18;99477.91;;;15.73;38.88
40864;BME280;26582;47.524;19.012;2024-02-21T12:34:46;99480.03;;;15.11;40.10
40864;BME280;26582;47.524;19.012;2024-02-21T12:37:13;99470.41;;;14.92;41.14
40864;BME280;26582;47.524;19.012;2024-02-21T12:39:41;99474.94;;;14.92;41.29
40864;BME280;26582;47.524;19.012;2024-02-21T12:42:08;99474.97;;;14.22;42.03
40864;BME280;26582;47.524;19.012;2024-02-21T12:44:37;99473.28;;;13.95;42.90
40864;BME280;26582;47.524;19.012;2024-02-21T12:47:04;99474.47;;;14.00;43.48
40864;BME280;26582;47.524;19.012;2024-02-21T12:49:30;99469.22;;;13.91;43.39
40864;BME280;26582;47.524;19.012;2024-02-21T12:51:59;99467.31;;;13.65;44.70
40864;BME280;26582;47.524;19.012;2024-02-21T12:54:26;99457.56;;;13.28;44.95
40864;BME280;26582;47.524;19.012;2024-02-21T12:56:52;99459.03;;;13.76;44.78